Terminal Aerodrome Forecast
Issued by NWS Brownsville, TX

Home | Current Version | Previous Version | Text Only | Print | Product List | Glossary On
Versions: 1 2 3 4 5 6 7 8 9 10 11 12 13 14 15 16 17 18 19 20 21 22
000
FTUS44 KBRO 290537
TAFHRL
TAF
KHRL 290537Z 2906/3006 36003KT P6SM FEW025
     FM291400 35005KT P6SM SCT050 BKN080
      TEMPO 2914/2918 5SM -SHRA BKN025
     FM291800 04010G17KT P6SM VCSH SCT030 BKN050 PROB30 2918/2922
      5SM -SHRA BKN025
     FM292200 04012G18KT P6SM BKN040 BKN100
     FM300200 02003KT P6SM SCT030=

USA.gov is the U.S. government's official web portal to all federal, state and local government web resources and services.